sensor_id;sensor_type;location;lat;lon;timestamp;temperature;humidity
4399;DHT22;2213;49.720;7.296;2023-04-24T00:02:10;11.50;99.90
4399;DHT22;2213;49.720;7.296;2023-04-24T00:04:41;11.50;99.90
4399;DHT22;2213;49.720;7.296;2023-04-24T00:07:13;11.40;99.90
4399;DHT22;2213;49.720;7.296;2023-04-24T00:09:44;11.50;99.90
4399;DHT22;2213;49.720;7.296;2023-04-24T00:12:14;11.40;99.90
4399;DHT22;2213;49.720;7.296;2023-04-24T00:14:45;11.40;99.90
4399;DHT22;2213;49.720;7.296;2023-04-24T00:17:15;11.40;99.90
4399;DHT22;2213;49.720;7.296;2023-04-24T00:19:48;11.40;99.90
4399;DHT22;2213;49.720;7.296;2023-04-24T00:22:19;11.40;99.90
4399;DHT22;2213;49.720;7.296;2023-04-24T00:24:51;11.40;99.90
4399;DHT22;2213;49.720;7.296;2023-04-24T00:27:20;11.40;99.90
4399;DHT22;2213;49.720;7.296;2023-04-24T00:29:49;11.30;99.90
4399;DHT22;2213;49.720;7.296;2023-04-24T00:32:18;11.30;99.90
4399;DHT22;2213;49.720;7.296;2023-04-24T00:34:49;11.30;99.90
4399;DHT22;2213;49.720;7.296;2023-04-24T00:37:21;11.40;99.90
4399;DHT22;2213;49.720;7.296;2023-04-24T00:39:50;11.40;99.90
4399;DHT22;2213;49.720;7.296;2023-04-24T00:42:21;11.30;99.90
4399;DHT22;2213;49.720;7.296;2023-04-24T00:44:51;11.30;99.90
4399;DHT22;2213;49.720;7.296;2023-04-24T00:47:20;11.30;99.90
4399;DHT22;2213;49.720;7.296;2023-04-24T00:49:50;11.30;99.90
4399;DHT22;2213;49.720;7.296;2023-04-24T00:52:22;11.30;99.90
4399;DHT22;2213;49.720;7.296;2023-04-24T00:54:52;11.30;99.90
4399;DHT22;2213;49.720;7.296;2023-04-24T00:57:23;11.30;99.90
4399;DHT22;2213;49.720;7.296;2023-04-24T00:59:53;11.20;99.90
4399;DHT22;2213;49.720;7.296;2023-04-24T01:02:24;11.20;99.90
4399;DHT22;2213;49.720;7.296;2023-04-24T01:04:54;11.20;99.90
4399;DHT22;2213;49.720;7.296;2023-04-24T01:07:26;11.20;99.90
4399;DHT22;2213;49.720;7.296;2023-04-24T01:09:57;11.20;99.90
4399;DHT22;2213;49.720;7.296;2023-04-24T01:12:27;11.20;99.90
4399;DHT22;2213;49.720;7.296;2023-04-24T01:14:56;11.20;99.90
4399;DHT22;2213;49.720;7.296;2023-04-24T01:17:27;11.10;99.90
4399;DHT22;2213;49.720;7.296;2023-04-24T01:19:58;11.10;99.90
4399;DHT22;2213;49.720;7.296;2023-04-24T01:22:30;11.10;99.90
4399;DHT22;2213;49.720;7.296;2023-04-24T01:24:59;11.00;99.90
4399;DHT22;2213;49.720;7.296;2023-04-24T01:27:30;10.90;99.90
4399;DHT22;2213;49.720;7.296;2023-04-24T01:30:00;11.00;99.90
4399;DHT22;2213;49.720;7.296;2023-04-24T01:32:29;11.00;99.90
4399;DHT22;2213;49.720;7.296;2023-04-24T01:34:59;11.00;99.90
4399;DHT22;2213;49.720;7.296;2023-04-24T01:37:31;10.90;99.90
4399;DHT22;2213;49.720;7.296;2023-04-24T01:40:00;10.90;99.90
4399;DHT22;2213;49.720;7.296;2023-04-24T01:42:31;10.90;99.90
4399;DHT22;2213;49.720;7.296;2023-04-24T01:45:03;10.80;99.90
4399;DHT22;2213;49.720;7.296;2023-04-24T01:47:34;10.80;99.90
4399;DHT22;2213;49.720;7.296;2023-04-24T01:50:05;10.90;99.90
4399;DHT22;2213;49.720;7.296;2023-04-24T01:52:41;10.80;99.90
4399;DHT22;2213;49.720;7.296;2023-04-24T01:55:10;10.90;99.90
4399;DHT22;2213;49.720;7.296;2023-04-24T01:57:40;10.80;99.90
4399;DHT22;2213;49.720;7.296;2023-04-24T02:00:10;10.90;99.90
4399;DHT22;2213;49.720;7.296;2023-04-24T02:02:42;10.70;99.90
4399;DHT22;2213;49.720;7.296;2023-04-24T02:05:14;10.60;99.90
4399;DHT22;2213;49.720;7.296;2023-04-24T02:07:44;10.70;99.90
4399;DHT22;2213;49.720;7.296;2023-04-24T02:10:14;10.70;99.90
4399;DHT22;2213;49.720;7.296;2023-04-24T02:12:43;10.60;99.90
4399;DHT22;2213;49.720;7.296;2023-04-24T02:15:13;10.60;99.90
4399;DHT22;2213;49.720;7.296;2023-04-24T02:17:44;10.60;99.90
4399;DHT22;2213;49.720;7.296;2023-04-24T02:20:15;10.60;99.90
4399;DHT22;2213;49.720;7.296;2023-04-24T02:22:46;10.60;99.90
4399;DHT22;2213;49.720;7.296;2023-04-24T02:25:16;10.50;99.90
4399;DHT22;2213;49.720;7.296;2023-04-24T02:27:46;10.50;99.90
4399;DHT22;2213;49.720;7.296;2023-04-24T02:30:15;10.50;99.90
4399;DHT22;2213;49.720;7.296;2023-04-24T02:32:45;10.40;99.90
4399;DHT22;2213;49.720;7.296;2023-04-24T02:35:15;10.40;99.90
4399;DHT22;2213;49.720;7.296;2023-04-24T02:37:48;10.40;99.90
4399;DHT22;2213;49.720;7.296;2023-04-24T02:40:18;10.30;99.90
4399;DHT22;2213;49.720;7.296;2023-04-24T02:42:48;10.30;99.90
4399;DHT22;2213;49.720;7.296;2023-04-24T02:45:18;10.30;99.90
4399;DHT22;2213;49.720;7.296;2023-04-24T02:47:47;10.20;99.90
4399;DHT22;2213;49.720;7.296;2023-04-24T02:50:17;10.20;99.90
4399;DHT22;2213;49.720;7.296;2023-04-24T02:52:49;10.20;99.90
4399;DHT22;2213;49.720;7.296;2023-04-24T02:55:20;10.20;99.90
4399;DHT22;2213;49.720;7.296;2023-04-24T02:57:51;10.10;99.90
4399;DHT22;2213;49.720;7.296;2023-04-24T03:00:22;10.10;99.90
4399;DHT22;2213;49.720;7.296;2023-04-24T03:02:53;10.10;99.90
4399;DHT22;2213;49.720;7.296;2023-04-24T03:05:23;10.10;99.90
4399;DHT22;2213;49.720;7.296;2023-04-24T03:07:56;10.10;99.90
4399;DHT22;2213;49.720;7.296;2023-04-24T03:10:26;10.10;99.90
4399;DHT22;2213;49.720;7.296;2023-04-24T03:12:55;10.10;99.90
4399;DHT22;2213;49.720;7.296;2023-04-24T03:15:26;10.10;99.90
4399;DHT22;2213;49.720;7.296;2023-04-24T03:17:56;10.00;99.90
4399;DHT22;2213;49.720;7.296;2023-04-24T03:20:26;10.00;99.90
4399;DHT22;2213;49.720;7.296;2023-04-24T03:22:58;10.00;99.90
4399;DHT22;2213;49.720;7.296;2023-04-24T03:25:27;9.90;99.90
4399;DHT22;2213;49.720;7.296;2023-04-24T03:27:57;9.90;99.90
4399;DHT22;2213;49.720;7.296;2023-04-24T03:30:27;9.80;99.90
4399;DHT22;2213;49.720;7.296;2023-04-24T03:32:57;9.70;99.90
4399;DHT22;2213;49.720;7.296;2023-04-24T03:35:27;9.70;99.90
4399;DHT22;2213;49.720;7.296;2023-04-24T03:37:58;9.70;99.90
4399;DHT22;2213;49.720;7.296;2023-04-24T03:40:28;9.70;99.90
4399;DHT22;2213;49.720;7.296;2023-04-24T03:42:58;9.70;99.90
4399;DHT22;2213;49.720;7.296;2023-04-24T03:45:28;9.70;99.90
4399;DHT22;2213;49.720;7.296;2023-04-24T03:47:58;9.60;99.90
4399;DHT22;2213;49.720;7.296;2023-04-24T03:50:28;9.60;99.90
4399;DHT22;2213;49.720;7.296;2023-04-24T03:52:59;9.70;99.90
4399;DHT22;2213;49.720;7.296;2023-04-24T03:55:29;9.70;99.90
4399;DHT22;2213;49.720;7.296;2023-04-24T03:58:00;9.60;99.90
4399;DHT22;2213;49.720;7.296;2023-04-24T04:00:30;9.70;99.90
4399;DHT22;2213;49.720;7.296;2023-04-24T04:03:01;9.60;99.90
4399;DHT22;2213;49.720;7.296;2023-04-24T04:05:31;9.50;99.90
4399;DHT22;2213;49.720;7.296;2023-04-24T04:08:02;9.50;99.90
4399;DHT22;2213;49.720;7.296;2023-04-24T04:10:32;9.40;99.90
4399;DHT22;2213;49.720;7.296;2023-04-24T04:13:01;9.50;99.90
4399;DHT22;2213;49.720;7.296;2023-04-24T04:15:30;9.50;99.90
4399;DHT22;2213;49.720;7.296;2023-04-24T04:18:00;9.50;99.90
4399;DHT22;2213;49.720;7.296;2023-04-24T04:20:29;9.50;99.90
4399;DHT22;2213;49.720;7.296;2023-04-24T04:22:58;9.50;99.90
4399;DHT22;2213;49.720;7.296;2023-04-24T04:25:29;9.40;99.90
4399;DHT22;2213;49.720;7.296;2023-04-24T04:28:00;9.40;99.90
4399;DHT22;2213;49.720;7.296;2023-04-24T04:30:30;9.40;99.90
4399;DHT22;2213;49.720;7.296;2023-04-24T04:33:00;9.40;99.90
4399;DHT22;2213;49.720;7.296;2023-04-24T04:35:30;9.30;99.90
4399;DHT22;2213;49.720;7.296;2023-04-24T04:38:00;9.30;99.90
4399;DHT22;2213;49.720;7.296;2023-04-24T04:40:31;9.30;99.90
4399;DHT22;2213;49.720;7.296;2023-04-24T04:43:01;9.20;99.90
4399;DHT22;2213;49.720;7.296;2023-04-24T04:45:32;9.20;99.90
4399;DHT22;2213;49.720;7.296;2023-04-24T04:48:02;9.20;99.90
4399;DHT22;2213;49.720;7.296;2023-04-24T04:50:32;9.20;99.90
4399;DHT22;2213;49.720;7.296;2023-04-24T04:53:01;9.20;99.90
4399;DHT22;2213;49.720;7.296;2023-04-24T04:55:34;9.20;99.90
4399;DHT22;2213;49.720;7.296;2023-04-24T04:58:03;9.20;99.90
4399;DHT22;2213;49.720;7.296;2023-04-24T05:00:33;9.20;99.90
4399;DHT22;2213;49.720;7.296;2023-04-24T05:03:03;9.20;99.90
4399;DHT22;2213;49.720;7.296;2023-04-24T05:05:47;9.20;99.90
4399;DHT22;2213;49.720;7.296;2023-04-24T05:08:16;9.20;99.90
4399;DHT22;2213;49.720;7.296;2023-04-24T05:10:55;9.20;99.90
4399;DHT22;2213;49.720;7.296;2023-04-24T05:13:24;9.20;99.90
4399;DHT22;2213;49.720;7.296;2023-04-24T05:16:06;9.20;99.90
4399;DHT22;2213;49.720;7.296;2023-04-24T05:18:36;9.30;99.90
4399;DHT22;2213;49.720;7.296;2023-04-24T05:21:05;9.30;99.90
4399;DHT22;2213;49.720;7.296;2023-04-24T05:23:35;9.20;99.90
4399;DHT22;2213;49.720;7.296;2023-04-24T05:26:06;9.20;99.90
4399;DHT22;2213;49.720;7.296;2023-04-24T05:28:36;9.20;99.90
4399;DHT22;2213;49.720;7.296;2023-04-24T05:31:06;9.20;99.90
4399;DHT22;2213;49.720;7.296;2023-04-24T05:33:35;9.20;99.90
4399;DHT22;2213;49.720;7.296;2023-04-24T05:36:06;9.20;99.90
4399;DHT22;2213;49.720;7.296;2023-04-24T05:38:37;9.30;99.90
4399;DHT22;2213;49.720;7.296;2023-04-24T05:41:09;9.30;99.90
4399;DHT22;2213;49.720;7.296;2023-04-24T05:43:38;9.20;99.90
4399;DHT22;2213;49.720;7.296;2023-04-24T05:46:08;9.30;99.90
4399;DHT22;2213;49.720;7.296;2023-04-24T05:48:38;9.30;99.90
4399;DHT22;2213;49.720;7.296;2023-04-24T05:51:09;9.30;99.90
4399;DHT22;2213;49.720;7.296;2023-04-24T05:53:40;9.30;99.90
4399;DHT22;2213;49.720;7.296;2023-04-24T05:56:11;9.30;99.90
4399;DHT22;2213;49.720;7.296;2023-04-24T05:58:41;9.30;99.90
4399;DHT22;2213;49.720;7.296;2023-04-24T06:01:10;9.30;99.90
4399;DHT22;2213;49.720;7.296;2023-04-24T06:03:40;9.40;99.90
4399;DHT22;2213;49.720;7.296;2023-04-24T06:06:10;9.40;99.90
4399;DHT22;2213;49.720;7.296;2023-04-24T06:08:41;9.40;99.90
4399;DHT22;2213;49.720;7.296;2023-04-24T06:11:12;9.40;99.90
4399;DHT22;2213;49.720;7.296;2023-04-24T06:13:42;9.40;99.90
4399;DHT22;2213;49.720;7.296;2023-04-24T06:16:12;9.40;99.90
4399;DHT22;2213;49.720;7.296;2023-04-24T06:18:41;9.40;99.90
4399;DHT22;2213;49.720;7.296;2023-04-24T06:21:11;9.40;99.90
4399;DHT22;2213;49.720;7.296;2023-04-24T06:23:41;9.50;99.90
4399;DHT22;2213;49.720;7.296;2023-04-24T06:26:11;9.40;99.90
4399;DHT22;2213;49.720;7.296;2023-04-24T06:28:41;9.40;99.90
4399;DHT22;2213;49.720;7.296;2023-04-24T06:31:11;9.50;99.90
4399;DHT22;2213;49.720;7.296;2023-04-24T06:33:41;9.50;99.90
4399;DHT22;2213;49.720;7.296;2023-04-24T06:36:12;9.60;99.90
4399;DHT22;2213;49.720;7.296;2023-04-24T06:38:41;9.70;99.90
4399;DHT22;2213;49.720;7.296;2023-04-24T06:41:12;9.70;99.90
4399;DHT22;2213;49.720;7.296;2023-04-24T06:43:43;9.70;99.90
4399;DHT22;2213;49.720;7.296;2023-04-24T06:46:13;9.80;99.90
4399;DHT22;2213;49.720;7.296;2023-04-24T06:48:43;9.90;99.90
4399;DHT22;2213;49.720;7.296;2023-04-24T06:51:14;9.80;99.90
4399;DHT22;2213;49.720;7.296;2023-04-24T06:53:46;9.80;99.90
4399;DHT22;2213;49.720;7.296;2023-04-24T06:56:17;9.80;99.90
4399;DHT22;2213;49.720;7.296;2023-04-24T06:58:47;9.80;99.90
4399;DHT22;2213;49.720;7.296;2023-04-24T07:01:18;9.80;99.90
4399;DHT22;2213;49.720;7.296;2023-04-24T07:03:47;9.70;99.90
4399;DHT22;2213;49.720;7.296;2023-04-24T07:06:17;9.70;99.90
4399;DHT22;2213;49.720;7.296;2023-04-24T07:08:49;9.70;99.90
4399;DHT22;2213;49.720;7.296;2023-04-24T07:11:20;9.60;99.90
4399;DHT22;2213;49.720;7.296;2023-04-24T07:13:49;9.70;99.90
4399;DHT22;2213;49.720;7.296;2023-04-24T07:16:18;9.60;99.90
4399;DHT22;2213;49.720;7.296;2023-04-24T07:18:48;9.70;99.90
4399;DHT22;2213;49.720;7.296;2023-04-24T07:21:19;9.60;99.90
4399;DHT22;2213;49.720;7.296;2023-04-24T07:23:48;9.70;99.90
4399;DHT22;2213;49.720;7.296;2023-04-24T07:26:20;9.70;99.90
4399;DHT22;2213;49.720;7.296;2023-04-24T07:28:50;9.60;99.90
4399;DHT22;2213;49.720;7.296;2023-04-24T07:31:20;9.80;99.90
4399;DHT22;2213;49.720;7.296;2023-04-24T07:33:49;9.70;99.90
4399;DHT22;2213;49.720;7.296;2023-04-24T07:36:20;9.70;99.90
4399;DHT22;2213;49.720;7.296;2023-04-24T07:38:49;9.80;99.90
4399;DHT22;2213;49.720;7.296;2023-04-24T07:41:20;9.70;99.90
4399;DHT22;2213;49.720;7.296;2023-04-24T07:43:51;9.80;99.90
4399;DHT22;2213;49.720;7.296;2023-04-24T07:46:21;9.80;99.90
4399;DHT22;2213;49.720;7.296;2023-04-24T07:48:52;9.80;99.90
4399;DHT22;2213;49.720;7.296;2023-04-24T07:51:38;9.70;99.90
4399;DHT22;2213;49.720;7.296;2023-04-24T07:54:09;9.70;99.90
4399;DHT22;2213;49.720;7.296;2023-04-24T07:56:40;9.70;99.90
4399;DHT22;2213;49.720;7.296;2023-04-24T07:59:11;9.70;99.90
4399;DHT22;2213;49.720;7.296;2023-04-24T08:01:41;9.70;99.90
4399;DHT22;2213;49.720;7.296;2023-04-24T08:04:11;9.60;99.90
4399;DHT22;2213;49.720;7.296;2023-04-24T08:06:41;9.70;99.90
4399;DHT22;2213;49.720;7.296;2023-04-24T08:09:11;9.60;99.90
4399;DHT22;2213;49.720;7.296;2023-04-24T08:11:43;9.60;99.90
4399;DHT22;2213;49.720;7.296;2023-04-24T08:14:13;9.60;99.90
4399;DHT22;2213;49.720;7.296;2023-04-24T08:16:42;9.60;99.90
4399;DHT22;2213;49.720;7.296;2023-04-24T08:19:12;9.60;99.90
4399;DHT22;2213;49.720;7.296;2023-04-24T08:21:42;9.60;99.90
4399;DHT22;2213;49.720;7.296;2023-04-24T08:24:12;9.60;99.90
4399;DHT22;2213;49.720;7.296;2023-04-24T08:26:42;9.70;99.90
4399;DHT22;2213;49.720;7.296;2023-04-24T08:29:13;9.60;99.90
4399;DHT22;2213;49.720;7.296;2023-04-24T08:31:41;9.60;99.90
4399;DHT22;2213;49.720;7.296;2023-04-24T08:34:11;9.60;99.90
4399;DHT22;2213;49.720;7.296;2023-04-24T08:36:40;9.70;99.90
4399;DHT22;2213;49.720;7.296;2023-04-24T08:39:13;9.60;99.90
4399;DHT22;2213;49.720;7.296;2023-04-24T08:41:48;9.50;99.90
4399;DHT22;2213;49.720;7.296;2023-04-24T08:44:22;9.60;99.90
4399;DHT22;2213;49.720;7.296;2023-04-24T08:46:52;9.70;99.90
4399;DHT22;2213;49.720;7.296;2023-04-24T08:49:24;9.50;99.90
4399;DHT22;2213;49.720;7.296;2023-04-24T08:51:55;9.50;99.90
4399;DHT22;2213;49.720;7.296;2023-04-24T08:54:27;9.60;99.90
4399;DHT22;2213;49.720;7.296;2023-04-24T08:57:00;9.60;99.90
4399;DHT22;2213;49.720;7.296;2023-04-24T08:59:31;9.60;99.90
4399;DHT22;2213;49.720;7.296;2023-04-24T09:02:04;9.70;99.90
4399;DHT22;2213;49.720;7.296;2023-04-24T09:04:33;9.70;99.90
4399;DHT22;2213;49.720;7.296;2023-04-24T09:07:04;9.70;99.90
4399;DHT22;2213;49.720;7.296;2023-04-24T09:09:35;9.70;99.90
4399;DHT22;2213;49.720;7.296;2023-04-24T09:12:07;9.70;99.90
4399;DHT22;2213;49.720;7.296;2023-04-24T09:14:37;9.60;99.90
4399;DHT22;2213;49.720;7.296;2023-04-24T09:17:13;9.70;99.90
4399;DHT22;2213;49.720;7.296;2023-04-24T09:19:43;9.70;99.90
4399;DHT22;2213;49.720;7.296;2023-04-24T09:22:12;9.70;99.90
4399;DHT22;2213;49.720;7.296;2023-04-24T09:24:42;9.80;99.90
4399;DHT22;2213;49.720;7.296;2023-04-24T09:27:15;9.80;99.90
4399;DHT22;2213;49.720;7.296;2023-04-24T09:29:54;9.80;99.90
4399;DHT22;2213;49.720;7.296;2023-04-24T09:32:24;9.90;99.90
4399;DHT22;2213;49.720;7.296;2023-04-24T09:35:08;9.90;99.90
4399;DHT22;2213;49.720;7.296;2023-04-24T09:37:40;9.90;99.90
4399;DHT22;2213;49.720;7.296;2023-04-24T09:40:15;9.90;99.90
4399;DHT22;2213;49.720;7.296;2023-04-24T09:42:52;9.90;99.90
4399;DHT22;2213;49.720;7.296;2023-04-24T09:45:22;10.00;99.90
4399;DHT22;2213;49.720;7.296;2023-04-24T09:47:57;9.90;99.90
4399;DHT22;2213;49.720;7.296;2023-04-24T09:50:25;9.90;99.90
4399;DHT22;2213;49.720;7.296;2023-04-24T09:53:01;9.70;99.90
4399;DHT22;2213;49.720;7.296;2023-04-24T09:55:32;9.70;99.90
4399;DHT22;2213;49.720;7.296;2023-04-24T09:58:03;9.80;99.90
4399;DHT22;2213;49.720;7.296;2023-04-24T10:00:33;9.80;99.90
4399;DHT22;2213;49.720;7.296;2023-04-24T10:03:03;9.90;99.90
4399;DHT22;2213;49.720;7.296;2023-04-24T10:05:36;9.90;99.90
4399;DHT22;2213;49.720;7.296;2023-04-24T10:08:08;9.90;99.90
4399;DHT22;2213;49.720;7.296;2023-04-24T10:10:43;9.90;99.90
4399;DHT22;2213;49.720;7.296;2023-04-24T10:13:15;10.00;99.90
4399;DHT22;2213;49.720;7.296;2023-04-24T10:15:47;10.00;99.90
4399;DHT22;2213;49.720;7.296;2023-04-24T10:18:18;10.00;99.90
4399;DHT22;2213;49.720;7.296;2023-04-24T10:20:50;10.10;99.90
4399;DHT22;2213;49.720;7.296;2023-04-24T10:23:23;10.20;99.90
4399;DHT22;2213;49.720;7.296;2023-04-24T10:25:54;10.20;99.90
4399;DHT22;2213;49.720;7.296;2023-04-24T10:28:27;10.20;99.90
4399;DHT22;2213;49.720;7.296;2023-04-24T10:30:57;10.30;99.90
4399;DHT22;2213;49.720;7.296;2023-04-24T10:33:26;10.30;99.90
4399;DHT22;2213;49.720;7.296;2023-04-24T10:35:58;10.30;99.90
4399;DHT22;2213;49.720;7.296;2023-04-24T10:38:29;10.40;99.90
4399;DHT22;2213;49.720;7.296;2023-04-24T10:41:07;10.40;99.90
4399;DHT22;2213;49.720;7.296;2023-04-24T10:43:45;10.30;99.90
4399;DHT22;2213;49.720;7.296;2023-04-24T10:46:19;10.40;99.90
4399;DHT22;2213;49.720;7.296;2023-04-24T10:48:53;10.50;99.90
4399;DHT22;2213;49.720;7.296;2023-04-24T10:51:23;10.50;99.90
4399;DHT22;2213;49.720;7.296;2023-04-24T10:54:22;10.30;99.90
4399;DHT22;2213;49.720;7.296;2023-04-24T10:56:53;10.30;99.90
4399;DHT22;2213;49.720;7.296;2023-04-24T10:59:44;10.20;99.90
4399;DHT22;2213;49.720;7.296;2023-04-24T11:02:16;10.30;99.90
4399;DHT22;2213;49.720;7.296;2023-04-24T11:04:46;10.30;99.90
4399;DHT22;2213;49.720;7.296;2023-04-24T11:07:21;10.30;99.90
4399;DHT22;2213;49.720;7.296;2023-04-24T11:09:58;10.30;99.90
4399;DHT22;2213;49.720;7.296;2023-04-24T11:12:31;10.40;99.90
4399;DHT22;2213;49.720;7.296;2023-04-24T11:15:11;10.50;99.90
4399;DHT22;2213;49.720;7.296;2023-04-24T11:17:44;10.50;99.90
4399;DHT22;2213;49.720;7.296;2023-04-24T11:20:18;10.50;99.90
4399;DHT22;2213;49.720;7.296;2023-04-24T11:22:55;10.70;99.90
4399;DHT22;2213;49.720;7.296;2023-04-24T11:25:33;10.70;99.90
4399;DHT22;2213;49.720;7.296;2023-04-24T11:28:05;10.70;99.90
4399;DHT22;2213;49.720;7.296;2023-04-24T11:30:40;10.80;99.90
4399;DHT22;2213;49.720;7.296;2023-04-24T11:33:10;10.80;99.90
4399;DHT22;2213;49.720;7.296;2023-04-24T11:35:48;10.90;99.90
4399;DHT22;2213;49.720;7.296;2023-04-24T11:38:20;10.80;99.90
4399;DHT22;2213;49.720;7.296;2023-04-24T11:40:51;10.80;99.90
4399;DHT22;2213;49.720;7.296;2023-04-24T11:43:21;10.90;99.90
4399;DHT22;2213;49.720;7.296;2023-04-24T11:45:54;10.70;99.90
4399;DHT22;2213;49.720;7.296;2023-04-24T11:48:24;10.80;99.90
4399;DHT22;2213;49.720;7.296;2023-04-24T11:50:54;10.80;99.90
4399;DHT22;2213;49.720;7.296;2023-04-24T11:53:24;10.90;99.90
4399;DHT22;2213;49.720;7.296;2023-04-24T11:55:54;10.90;99.90
4399;DHT22;2213;49.720;7.296;2023-04-24T11:58:25;11.00;99.90
4399;DHT22;2213;49.720;7.296;2023-04-24T12:00:57;11.00;99.90
4399;DHT22;2213;49.720;7.296;2023-04-24T12:03:29;11.10;99.90
4399;DHT22;2213;49.720;7.296;2023-04-24T12:06:05;11.10;99.90
4399;DHT22;2213;49.720;7.296;2023-04-24T12:08:36;11.30;99.90
4399;DHT22;2213;49.720;7.296;2023-04-24T12:11:07;11.20;99.90
4399;DHT22;2213;49.720;7.296;2023-04-24T12:13:37;11.20;99.90
4399;DHT22;2213;49.720;7.296;2023-04-24T12:16:07;11.30;99.90
4399;DHT22;2213;49.720;7.296;2023-04-24T12:18:42;11.30;99.90
4399;DHT22;2213;49.720;7.296;2023-04-24T12:21:18;11.30;99.90
4399;DHT22;2213;49.720;7.296;2023-04-24T12:23:49;11.40;99.90
4399;DHT22;2213;49.720;7.296;2023-04-24T12:26:19;11.50;99.90
4399;DHT22;2213;49.720;7.296;2023-04-24T12:28:50;11.50;99.90
4399;DHT22;2213;49.720;7.296;2023-04-24T12:31:22;11.50;99.90
4399;DHT22;2213;49.720;7.296;2023-04-24T12:33:51;11.60;99.90
4399;DHT22;2213;49.720;7.296;2023-04-24T12:36:21;11.40;99.90
4399;DHT22;2213;49.720;7.296;2023-04-24T12:38:53;11.50;99.90
4399;DHT22;2213;49.720;7.296;2023-04-24T12:41:25;11.50;99.90
4399;DHT22;2213;49.720;7.296;2023-04-24T12:43:56;11.60;99.90
4399;DHT22;2213;49.720;7.296;2023-04-24T12:46:27;11.60;99.90
4399;DHT22;2213;49.720;7.296;2023-04-24T12:48:57;11.60;99.90
4399;DHT22;2213;49.720;7.296;2023-04-24T12:51:27;11.70;99.90
4399;DHT22;2213;49.720;7.296;2023-04-24T12:53:58;11.60;99.90
4399;DHT22;2213;49.720;7.296;2023-04-24T12:56:28;11.70;99.90
4399;DHT22;2213;49.720;7.296;2023-04-24T12:58:58;11.70;99.90
4399;DHT22;2213;49.720;7.296;2023-04-24T13:01:30;11.70;99.90
4399;DHT22;2213;49.720;7.296;2023-04-24T13:04:00;11.70;99.90
4399;DHT22;2213;49.720;7.296;2023-04-24T13:06:30;11.60;99.90
4399;DHT22;2213;49.720;7.296;2023-04-24T13:09:01;11.70;99.90
4399;DHT22;2213;49.720;7.296;2023-04-24T13:11:30;11.80;99.90
4399;DHT22;2213;49.720;7.296;2023-04-24T13:14:00;11.70;99.90
4399;DHT22;2213;49.720;7.296;2023-04-24T13:16:31;11.50;99.90
4399;DHT22;2213;49.720;7.296;2023-04-24T13:19:01;11.60;99.90
4399;DHT22;2213;49.720;7.296;2023-04-24T13:21:30;11.70;99.90
4399;DHT22;2213;49.720;7.296;2023-04-24T13:23:59;11.80;99.90
4399;DHT22;2213;49.720;7.296;2023-04-24T13:26:28;11.80;99.90
4399;DHT22;2213;49.720;7.296;2023-04-24T13:28:58;12.00;99.90
4399;DHT22;2213;49.720;7.296;2023-04-24T13:31:26;12.00;99.90
4399;DHT22;2213;49.720;7.296;2023-04-24T13:33:57;12.10;99.90
4399;DHT22;2213;49.720;7.296;2023-04-24T13:36:26;12.20;99.90
4399;DHT22;2213;49.720;7.296;2023-04-24T13:38:56;12.10;99.90
4399;DHT22;2213;49.720;7.296;2023-04-24T13:41:26;12.10;99.90
4399;DHT22;2213;49.720;7.296;2023-04-24T13:43:56;12.10;99.90
4399;DHT22;2213;49.720;7.296;2023-04-24T13:46:25;12.20;99.90
4399;DHT22;2213;49.720;7.296;2023-04-24T13:48:57;12.20;99.90
4399;DHT22;2213;49.720;7.296;2023-04-24T13:51:26;12.00;99.90
4399;DHT22;2213;49.720;7.296;2023-04-24T13:53:55;12.00;99.90
4399;DHT22;2213;49.720;7.296;2023-04-24T13:56:26;12.10;99.90
4399;DHT22;2213;49.720;7.296;2023-04-24T13:58:56;12.10;99.90
4399;DHT22;2213;49.720;7.296;2023-04-24T14:01:24;12.10;99.90
4399;DHT22;2213;49.720;7.296;2023-04-24T14:03:54;12.10;99.90
4399;DHT22;2213;49.720;7.296;2023-04-24T14:06:25;12.10;99.90
4399;DHT22;2213;49.720;7.296;2023-04-24T14:08:54;12.00;99.90
4399;DHT22;2213;49.720;7.296;2023-04-24T14:11:24;12.10;99.90
4399;DHT22;2213;49.720;7.296;2023-04-24T14:13:55;12.20;99.90
4399;DHT22;2213;49.720;7.296;2023-04-24T14:16:25;12.10;99.90
4399;DHT22;2213;49.720;7.296;2023-04-24T14:18:54;12.30;99.90
4399;DHT22;2213;49.720;7.296;2023-04-24T14:21:26;12.30;99.90
4399;DHT22;2213;49.720;7.296;2023-04-24T14:23:56;12.40;99.90
4399;DHT22;2213;49.720;7.296;2023-04-24T14:26:26;12.50;99.90
4399;DHT22;2213;49.720;7.296;2023-04-24T14:28:55;12.50;99.90
4399;DHT22;2213;49.720;7.296;2023-04-24T14:31:40;12.60;99.90
4399;DHT22;2213;49.720;7.296;2023-04-24T14:34:10;12.70;99.90
4399;DHT22;2213;49.720;7.296;2023-04-24T14:36:42;12.90;99.90
4399;DHT22;2213;49.720;7.296;2023-04-24T14:39:10;12.90;99.90
4399;DHT22;2213;49.720;7.296;2023-04-24T14:41:39;13.00;99.90
4399;DHT22;2213;49.720;7.296;2023-04-24T14:44:08;12.90;99.90
4399;DHT22;2213;49.720;7.296;2023-04-24T14:46:38;13.00;99.90
4399;DHT22;2213;49.720;7.296;2023-04-24T14:49:08;13.00;99.90
4399;DHT22;2213;49.720;7.296;2023-04-24T14:51:40;13.10;99.90
4399;DHT22;2213;49.720;7.296;2023-04-24T14:54:10;13.00;99.90
4399;DHT22;2213;49.720;7.296;2023-04-24T14:56:40;13.10;99.90
4399;DHT22;2213;49.720;7.296;2023-04-24T14:59:12;13.10;99.90
4399;DHT22;2213;49.720;7.296;2023-04-24T15:01:42;13.30;99.90
4399;DHT22;2213;49.720;7.296;2023-04-24T15:04:11;13.40;99.90
4399;DHT22;2213;49.720;7.296;2023-04-24T15:06:43;13.40;99.90
4399;DHT22;2213;49.720;7.296;2023-04-24T15:09:13;13.20;99.90
4399;DHT22;2213;49.720;7.296;2023-04-24T15:11:43;13.30;99.90
4399;DHT22;2213;49.720;7.296;2023-04-24T15:14:13;13.20;99.90
4399;DHT22;2213;49.720;7.296;2023-04-24T15:16:43;13.10;99.90
4399;DHT22;2213;49.720;7.296;2023-04-24T15:19:12;13.20;99.90
4399;DHT22;2213;49.720;7.296;2023-04-24T15:21:44;13.20;99.90
4399;DHT22;2213;49.720;7.296;2023-04-24T15:24:14;13.10;99.90
4399;DHT22;2213;49.720;7.296;2023-04-24T15:26:43;13.20;99.90
4399;DHT22;2213;49.720;7.296;2023-04-24T15:29:13;13.20;99.90
4399;DHT22;2213;49.720;7.296;2023-04-24T15:31:42;13.10;99.90
4399;DHT22;2213;49.720;7.296;2023-04-24T15:34:13;12.80;99.90
4399;DHT22;2213;49.720;7.296;2023-04-24T15:36:44;12.90;99.90
4399;DHT22;2213;49.720;7.296;2023-04-24T15:39:14;12.80;99.90
4399;DHT22;2213;49.720;7.296;2023-04-24T15:41:43;12.70;99.90
4399;DHT22;2213;49.720;7.296;2023-04-24T15:44:13;12.60;99.90
4399;DHT22;2213;49.720;7.296;2023-04-24T15:46:44;12.70;99.90
4399;DHT22;2213;49.720;7.296;2023-04-24T15:49:14;12.70;99.90
4399;DHT22;2213;49.720;7.296;2023-04-24T15:51:45;12.60;99.90
4399;DHT22;2213;49.720;7.296;2023-04-24T15:54:14;12.40;99.90
4399;DHT22;2213;49.720;7.296;2023-04-24T15:56:43;12.40;99.90
4399;DHT22;2213;49.720;7.296;2023-04-24T15:59:14;12.20;99.90
4399;DHT22;2213;49.720;7.296;2023-04-24T16:01:44;12.10;99.90
4399;DHT22;2213;49.720;7.296;2023-04-24T16:04:13;12.00;99.90
4399;DHT22;2213;49.720;7.296;2023-04-24T16:06:45;11.80;99.90
4399;DHT22;2213;49.720;7.296;2023-04-24T16:09:14;11.70;99.90
4399;DHT22;2213;49.720;7.296;2023-04-24T16:11:43;11.40;99.90
4399;DHT22;2213;49.720;7.296;2023-04-24T16:14:13;11.30;99.90
4399;DHT22;2213;49.720;7.296;2023-04-24T16:16:41;11.30;99.90
4399;DHT22;2213;49.720;7.296;2023-04-24T16:19:11;11.20;99.90
4399;DHT22;2213;49.720;7.296;2023-04-24T16:21:43;11.10;99.90
4399;DHT22;2213;49.720;7.296;2023-04-24T16:24:12;11.00;99.90
4399;DHT22;2213;49.720;7.296;2023-04-24T16:26:41;11.00;99.90
4399;DHT22;2213;49.720;7.296;2023-04-24T16:29:10;11.00;99.90
4399;DHT22;2213;49.720;7.296;2023-04-24T16:31:42;10.90;99.90